Time;durP1;ratioP1;P1;durP2;ratioP2;P2;SDS_P1;SDS_P2;PMS_P1;PMS_P2;Temp;Humidity;BMP_temperature;BMP_pressure;BME280_temperature;BME280_humidity;BME280_pressure;Samples;Min_cycle;Max_cycle;Signal;HPM_P1;HPM_P2
2022/09/26 00:01:18;;;;;;;81.50;77.00;;;;;;;17.44;50.70;100391.43;117336;1186;23560;-68
2022/09/26 00:03:47;;;;;;;74.70;70.60;;;;;;;17.45;51.12;100393.34;117328;1185;23657;-60
2022/09/26 00:06:16;;;;;;;76.40;72.50;;;;;;;17.45;51.11;100391.93;117349;1185;22899;-60
2022/09/26 00:08:44;;;;;;;74.50;70.60;;;;;;;17.47;51.20;100388.33;117347;1185;23612;-60
2022/09/26 00:11:12;;;;;;;79.90;75.10;;;;;;;17.48;51.28;100384.36;117331;1185;23488;-68
2022/09/26 00:13:40;;;;;;;77.40;73.20;;;;;;;17.51;51.73;100386.39;117336;1185;23563;-68
2022/09/26 00:16:08;;;;;;;82.00;77.60;;;;;;;17.54;52.15;100385.90;117280;1185;23579;-68
2022/09/26 00:18:38;;;;;;;82.40;78.00;;;;;;;17.57;52.07;100384.17;116956;1187;21922;-60
2022/09/26 00:21:12;;;;;;;88.80;84.40;;;;;;;17.60;52.11;100383.71;117077;1187;22932;-61
2022/09/26 00:23:40;;;;;;;84.30;79.90;;;;;;;17.64;52.15;100378.42;117088;1187;23634;-60
2022/09/26 00:26:07;;;;;;;101.00;95.80;;;;;;;17.67;51.86;100374.37;117288;1185;22841;-68
2022/09/26 00:28:34;;;;;;;96.10;91.10;;;;;;;17.71;52.24;100372.77;117248;1186;23649;-68
2022/09/26 00:31:09;;;;;;;94.20;89.40;;;;;;;17.76;52.21;100370.99;117273;1186;23602;-60
2022/09/26 00:33:36;;;;;;;90.00;85.40;;;;;;;17.79;52.13;100368.35;117119;1181;24243;-68
2022/09/26 00:36:04;;;;;;;92.40;87.70;;;;;;;17.81;51.87;100365.41;117290;1185;24261;-68
2022/09/26 00:38:31;;;;;;;105.40;100.20;;;;;;;17.82;52.55;100364.48;117113;1186;21859;-68
2022/09/26 00:40:58;;;;;;;102.00;96.60;;;;;;;17.87;52.33;100369.82;117149;1186;23453;-68
2022/09/26 00:43:40;;;;;;;94.50;89.70;;;;;;;17.91;52.13;100367.33;117310;1182;24207;-68
2022/09/26 00:46:20;;;;;;;104.00;98.40;;;;;;;17.93;52.35;100366.51;117106;1186;21855;-68
2022/09/26 00:48:52;;;;;;;99.70;93.90;;;;;;;17.96;52.11;100367.45;117098;1186;23558;-68
2022/09/26 00:51:19;;;;;;;107.40;101.30;;;;;;;17.98;51.98;100368.08;117152;1186;22835;-60
2022/09/26 00:53:48;;;;;;;106.10;100.10;;;;;;;18.02;51.90;100370.08;117091;1187;24219;-67
2022/09/26 00:56:21;;;;;;;103.00;97.10;;;;;;;18.02;52.10;100368.11;117112;1186;23019;-67
2022/09/26 00:58:54;;;;;;;114.60;108.40;;;;;;;18.01;52.04;100368.14;117116;1186;21867;-60
2022/09/26 01:01:21;;;;;;;114.30;108.00;;;;;;;18.00;51.93;100358.63;117169;1186;21845;-60
2022/09/26 01:03:48;;;;;;;107.50;101.80;;;;;;;18.00;52.08;100353.14;117119;1186;24162;-61
2022/09/26 01:06:15;;;;;;;107.60;102.20;;;;;;;17.97;52.19;100345.42;117261;1186;23476;-60
2022/09/26 01:09:07;;;;;;;106.80;101.50;;;;;;;17.95;52.18;100347.27;117212;1186;23466;-60
2022/09/26 01:11:35;;;;;;;96.00;91.10;;;;;;;17.94;52.12;100339.86;117272;1186;23492;-68
2022/09/26 01:14:03;;;;;;;111.90;106.40;;;;;;;17.95;52.07;100337.52;117112;1187;23521;-68
2022/09/26 01:16:30;;;;;;;108.00;102.60;;;;;;;17.94;52.16;100335.41;116963;1187;22558;-68
2022/09/26 01:18:59;;;;;;;109.00;103.30;;;;;;;17.95;52.04;100331.28;116998;1187;23554;-60
2022/09/26 01:21:42;;;;;;;113.80;108.10;;;;;;;17.94;52.07;100330.28;117243;1185;21868;-61
2022/09/26 01:24:58;;;;;;;129.50;119.20;;;;;;;17.94;52.04;100329.92;117200;1186;23476;-68
2022/09/26 01:27:43;;;;;;;110.50;102.00;;;;;;;17.93;52.01;100328.91;116906;1188;23723;-60
2022/09/26 01:30:20;;;;;;;101.20;94.90;;;;;;;17.88;51.86;100332.11;117187;1185;24154;-68
2022/09/26 01:33:36;;;;;;;110.90;104.60;;;;;;;17.83;51.86;100327.71;117109;1188;21970;-68
2022/09/26 01:36:18;;;;;;;93.10;87.70;;;;;;;17.78;51.87;100325.80;117049;1186;24253;-61
2022/09/26 01:38:58;;;;;;;97.40;92.00;;;;;;;17.75;51.96;100322.41;117103;1186;23443;-68
2022/09/26 01:41:52;;;;;;;112.60;105.70;;;;;;;17.74;51.91;100317.48;117191;1186;23608;-67
2022/09/26 01:44:47;;;;;;;92.10;86.70;;;;;;;17.71;52.09;100319.38;117282;1186;23555;-68
2022/09/26 01:47:23;;;;;;;92.90;87.60;;;;;;;17.67;52.00;100319.36;117243;1188;21845;-60
2022/09/26 01:50:00;;;;;;;96.70;91.30;;;;;;;17.59;52.25;100316.86;117333;1189;21853;-60
2022/09/26 01:52:28;;;;;;;97.90;92.60;;;;;;;17.56;52.23;100314.70;117345;1183;21867;-62
2022/09/26 01:55:07;;;;;;;103.20;97.80;;;;;;;17.52;52.26;100316.28;117269;1186;22869;-60
2022/09/26 01:58:08;;;;;;;108.30;102.70;;;;;;;17.50;52.33;100312.98;117308;1185;23573;-68
2022/09/26 02:00:37;;;;;;;94.50;89.60;;;;;;;17.53;52.22;100308.05;117237;1186;21855;-60
2022/09/26 02:03:05;;;;;;;90.90;86.10;;;;;;;17.50;52.39;100311.90;117141;1186;21859;-68
2022/09/26 02:05:43;;;;;;;99.80;94.60;;;;;;;17.51;52.74;100310.64;117157;1186;23595;-68
2022/09/26 02:08:26;;;;;;;97.30;92.20;;;;;;;17.48;52.86;100310.73;117157;1186;23551;-60
2022/09/26 02:11:01;;;;;;;99.00;93.60;;;;;;;17.47;53.01;100308.30;117085;1187;23564;-60
2022/09/26 02:13:30;;;;;;;94.20;89.50;;;;;;;17.49;52.99;100303.29;117047;1187;21981;-60
2022/09/26 02:16:01;;;;;;;102.60;97.40;;;;;;;17.51;53.04;100297.13;117131;1186;23691;-59
2022/09/26 02:18:47;;;;;;;102.30;97.20;;;;;;;17.54;53.13;100290.44;117143;1186;23557;-67
2022/09/26 02:21:19;;;;;;;94.50;89.60;;;;;;;17.56;53.20;100287.39;117232;1186;21853;-59
2022/09/26 02:23:47;;;;;;;100.10;95.20;;;;;;;17.56;53.49;100287.02;117102;1188;22100;-60
2022/09/26 02:26:14;;;;;;;108.70;103.30;;;;;;;17.60;53.54;100282.58;117042;1187;23456;-60
2022/09/26 02:28:41;;;;;;;109.90;104.30;;;;;;;17.63;53.52;100280.52;116921;1188;23653;-68
2022/09/26 02:31:08;;;;;;;110.20;104.50;;;;;;;17.72;54.02;100282.76;117028;1186;22833;-67
2022/09/26 02:33:36;;;;;;;104.40;99.20;;;;;;;17.80;53.61;100283.83;116883;1187;21868;-62
2022/09/26 02:36:05;;;;;;;112.40;106.60;;;;;;;17.86;53.74;100283.05;117108;1187;23872;-60
2022/09/26 02:38:33;;;;;;;106.10;100.80;;;;;;;17.90;53.89;100277.89;117050;1186;22112;-60
2022/09/26 02:41:26;;;;;;;120.80;114.50;;;;;;;17.98;54.42;100280.22;117045;1187;23619;-59
2022/09/26 02:44:16;;;;;;;117.00;111.00;;;;;;;18.04;53.77;100281.02;116877;1189;23560;-60
2022/09/26 02:47:25;;;;;;;108.10;102.60;;;;;;;18.11;53.98;100283.39;117243;1185;23541;-67
2022/09/26 02:49:58;;;;;;;103.60;98.10;;;;;;;18.16;53.73;100280.54;117088;1186;23583;-67
2022/09/26 02:52:40;;;;;;;106.90;101.60;;;;;;;18.15;54.08;100279.12;117142;1186;23566;-59
2022/09/26 02:55:35;;;;;;;117.10;111.30;;;;;;;18.15;53.99;100276.84;117111;1186;24025;-66
2022/09/26 02:58:02;;;;;;;108.00;102.80;;;;;;;18.18;54.55;100277.41;117240;1186;23542;-60
2022/09/26 03:00:50;;;;;;;110.90;105.30;;;;;;;18.23;54.54;100272.90;117157;1186;23576;-60
2022/09/26 03:03:21;;;;;;;109.20;103.70;;;;;;;18.28;54.77;100271.98;117053;1189;22672;-60
2022/09/26 03:05:48;;;;;;;;;;;;;;;18.30;54.59;100267.83;117132;1186;22618;-67
2022/09/26 03:08:20;;;;;;;91.00;86.40;;;;;;;18.32;54.94;100263.46;117032;1187;23566;-60
2022/09/26 03:10:47;;;;;;;111.60;105.80;;;;;;;18.35;54.51;100262.94;117144;1185;21864;-67
2022/09/26 03:13:16;;;;;;;130.40;123.90;;;;;;;18.36;55.15;100262.52;117202;1188;22928;-68
2022/09/26 03:15:46;;;;;;;110.10;104.90;;;;;;;18.41;54.59;100260.55;116880;1186;24662;-68
2022/09/26 03:18:15;;;;;;;143.20;136.10;;;;;;;18.43;54.86;100259.38;117274;1186;23550;-67
2022/09/26 03:20:43;;;;;;;149.90;142.30;;;;;;;18.44;54.53;100255.62;117249;1185;22735;-67
2022/09/26 03:23:10;;;;;;;169.80;161.60;;;;;;;18.50;54.62;100250.17;117274;1186;23611;-67
2022/09/26 03:25:37;;;;;;;148.60;141.20;;;;;;;18.52;54.63;100250.80;117211;1186;23558;-59
2022/09/26 03:28:05;;;;;;;156.10;148.30;;;;;;;18.54;54.76;100245.72;117247;1186;23649;-60
2022/09/26 03:30:33;;;;;;;161.00;153.00;;;;;;;18.54;54.99;100238.10;117021;1188;23598;-67
2022/09/26 03:33:02;;;;;;;157.40;149.80;;;;;;;18.57;54.70;100237.42;116918;1188;24226;-68
2022/09/26 03:35:29;;;;;;;156.70;148.90;;;;;;;18.59;54.88;100236.41;117069;1187;24167;-67
2022/09/26 03:37:57;;;;;;;163.50;155.30;;;;;;;18.61;54.77;100234.39;117028;1188;23580;-60
2022/09/26 03:40:24;;;;;;;165.80;157.70;;;;;;;18.63;54.84;100231.26;117078;1190;23631;-59
2022/09/26 03:42:51;;;;;;;168.10;159.80;;;;;;;18.64;55.22;100231.19;117342;1186;23452;-59
2022/09/26 03:45:19;;;;;;;160.70;152.90;;;;;;;18.65;55.56;100228.52;117288;1186;23555;-66
2022/09/26 03:47:47;;;;;;;179.20;170.70;;;;;;;18.67;55.31;100226.80;117276;1186;23556;-60
2022/09/26 03:50:15;;;;;;;167.60;159.00;;;;;;;18.71;54.98;100226.25;117126;1186;22929;-65
2022/09/26 03:52:42;;;;;;;166.70;158.40;;;;;;;18.73;55.08;100222.25;117195;1186;23558;-60
2022/09/26 03:55:10;;;;;;;171.50;163.10;;;;;;;18.74;55.32;100221.50;117184;1186;23472;-61
2022/09/26 03:57:37;;;;;;;164.80;156.80;;;;;;;18.72;55.05;100221.56;117379;1183;24168;-67
2022/09/26 04:00:06;;;;;;;176.20;167.50;;;;;;;18.69;55.13;100219.58;117299;1185;23592;-67
2022/09/26 04:02:34;;;;;;;180.60;171.90;;;;;;;18.70;56.10;100218.32;117312;1186;21845;-60
2022/09/26 04:05:02;;;;;;;184.40;175.20;;;;;;;18.70;55.74;100215.80;117317;1185;24161;-67
2022/09/26 04:07:29;;;;;;;178.50;169.90;;;;;;;18.74;55.40;100211.91;117242;1186;22610;-67
2022/09/26 04:09:57;;;;;;;177.90;169.10;;;;;;;18.77;55.60;100211.91;117311;1186;23577;-68
2022/09/26 04:12:24;;;;;;;178.90;170.10;;;;;;;18.79;55.13;100211.47;117340;1186;23665;-67
2022/09/26 04:15:06;;;;;;;148.90;141.40;;;;;;;18.78;55.29;100208.67;117288;1186;23618;-67
2022/09/26 04:17:35;;;;;;;160.70;152.80;;;;;;;18.78;55.44;100210.97;117341;1186;23552;-68
2022/09/26 04:20:03;;;;;;;176.00;167.40;;;;;;;18.83;55.85;100219.09;117336;1185;23557;-66
2022/09/26 04:22:30;;;;;;;186.20;177.20;;;;;;;18.89;55.43;100219.18;117273;1186;23630;-60
2022/09/26 04:24:57;;;;;;;173.00;164.40;;;;;;;18.86;55.79;100218.75;117292;1185;23599;-68
2022/09/26 04:27:28;;;;;;;176.30;167.80;;;;;;;18.88;55.46;100217.41;116977;1187;24820;-60
2022/09/26 04:29:56;;;;;;;188.10;178.90;;;;;;;18.90;55.59;100215.22;116963;1187;24215;-67
2022/09/26 04:32:23;;;;;;;180.30;171.50;;;;;;;18.93;55.48;100210.05;117114;1189;21854;-68
2022/09/26 04:34:50;;;;;;;162.00;154.00;;;;;;;18.95;55.67;100209.97;117209;1185;23570;-68
2022/09/26 04:37:19;;;;;;;197.10;187.70;;;;;;;18.98;55.86;100216.27;117090;1186;23570;-68
2022/09/26 04:39:47;;;;;;;185.30;176.00;;;;;;;19.00;55.89;100222.52;117124;1186;24122;-67
2022/09/26 04:42:14;;;;;;;165.40;157.20;;;;;;;19.03;55.52;100221.35;119234;1186;22253;-68
2022/09/26 04:44:42;;;;;;;185.70;176.60;;;;;;;19.06;55.72;100218.90;117837;1186;21874;-68
2022/09/26 04:47:10;;;;;;;176.80;168.40;;;;;;;19.08;55.77;100218.05;117225;1185;23006;-59
2022/09/26 04:49:37;;;;;;;198.30;188.60;;;;;;;19.11;55.80;100217.02;117177;1186;23554;-59
2022/09/26 04:52:05;;;;;;;205.30;195.60;;;;;;;19.16;55.97;100213.05;117210;1186;23544;-59
2022/09/26 04:54:36;;;;;;;209.00;198.90;;;;;;;19.22;55.94;100220.55;116958;1188;21857;-60
2022/09/26 04:57:03;;;;;;;160.00;152.10;;;;;;;19.26;55.95;100216.97;116989;1186;23414;-60
2022/09/26 04:59:30;;;;;;;177.80;169.30;;;;;;;19.30;55.92;100217.69;117005;1188;23601;-62
2022/09/26 05:01:57;;;;;;;178.70;169.90;;;;;;;19.33;55.85;100219.11;117131;1186;23555;-60
2022/09/26 05:04:24;;;;;;;184.60;175.60;;;;;;;19.38;56.38;100219.58;117199;1186;23554;-67
2022/09/26 05:06:54;;;;;;;197.00;187.50;;;;;;;19.44;56.25;100218.02;117268;1186;24243;-60
2022/09/26 05:09:22;;;;;;;183.90;175.10;;;;;;;19.50;56.10;100216.48;117329;1186;23560;-68
2022/09/26 05:11:48;;;;;;;193.60;184.40;;;;;;;19.55;56.00;100215.51;117266;1186;22834;-67
2022/09/26 05:14:17;;;;;;;182.40;173.80;;;;;;;19.59;56.14;100211.54;117226;1186;24162;-60
2022/09/26 05:16:46;;;;;;;201.00;191.10;;;;;;;19.65;55.98;100200.92;117262;1186;23556;-61
2022/09/26 05:19:13;;;;;;;206.60;196.80;;;;;;;19.70;56.70;100199.39;117162;1189;21899;-68
2022/09/26 05:21:42;;;;;;;208.70;198.70;;;;;;;19.75;56.92;100197.17;117167;1186;23557;-60
2022/09/26 05:26:55;;;;;;;192.60;183.40;;;;;;;19.87;56.99;100197.45;117186;1186;23577;-68
2022/09/26 05:29:22;;;;;;;193.60;184.00;;;;;;;19.93;56.60;100202.14;116953;1189;23581;-60
2022/09/26 05:31:52;;;;;;;199.60;190.00;;;;;;;19.99;56.87;100201.09;117087;1187;23601;-67
2022/09/26 05:34:19;;;;;;;183.30;174.10;;;;;;;20.05;56.87;100201.84;117082;1187;24168;-60
2022/09/26 05:36:48;;;;;;;193.40;184.20;;;;;;;20.11;56.75;100199.95;117213;1186;24248;-60
2022/09/26 05:42:08;;;;;;;207.90;197.10;;;;;;;20.20;57.09;100197.63;117230;1186;23558;-68
2022/09/26 05:44:37;;;;;;;211.50;200.60;;;;;;;20.27;56.99;100202.45;117226;1185;23541;-67
2022/09/26 05:47:06;;;;;;;203.90;191.40;;;;;;;20.32;56.69;100210.32;117338;1186;23576;-68
2022/09/26 05:49:34;;;;;;;201.00;189.90;;;;;;;20.36;57.17;100208.85;117462;1187;24177;-68
2022/09/26 05:52:02;;;;;;;211.20;200.10;;;;;;;20.40;57.23;100213.09;117242;1186;21851;-60
2022/09/26 05:54:29;;;;;;;229.80;216.40;;;;;;;20.50;57.03;100207.06;117223;1185;21911;-67
2022/09/26 05:56:56;;;;;;;205.30;195.10;;;;;;;20.56;57.19;100200.27;117373;1185;22796;-67
2022/09/26 05:59:23;;;;;;;214.60;203.70;;;;;;;20.60;57.49;100187.73;117318;1186;23554;-68
2022/09/26 06:01:51;;;;;;;217.00;206.50;;;;;;;20.62;57.53;100181.56;117214;1186;23550;-60
2022/09/26 06:04:19;;;;;;;199.20;188.80;;;;;;;20.65;57.18;100178.73;117275;1185;23481;-61
2022/09/26 06:06:50;;;;;;;221.90;210.00;;;;;;;20.68;57.17;100180.17;117309;1184;22963;-60
2022/09/26 06:09:17;;;;;;;219.90;209.10;;;;;;;20.70;57.50;100182.73;117159;1186;23576;-60
2022/09/26 06:11:44;;;;;;;198.60;188.90;;;;;;;20.71;57.73;100179.84;117173;1186;23694;-67
2022/09/26 06:14:12;;;;;;;195.00;184.80;;;;;;;20.73;57.97;100171.85;117326;1185;23631;-67
2022/09/26 06:16:41;;;;;;;204.50;193.40;;;;;;;20.74;57.34;100171.27;117180;1186;22911;-59
2022/09/26 06:19:08;;;;;;;205.70;195.40;;;;;;;20.75;57.27;100174.41;117353;1185;23586;-68
2022/09/26 06:21:38;;;;;;;218.00;205.60;;;;;;;20.78;57.72;100180.31;117079;1189;22846;-60
2022/09/26 06:24:05;;;;;;;196.90;186.40;;;;;;;20.87;57.51;100181.07;117095;1186;23561;-61
2022/09/26 06:26:32;;;;;;;202.50;191.90;;;;;;;21.04;57.46;100175.63;117206;1186;21877;-59
2022/09/26 06:29:00;;;;;;;233.10;218.50;;;;;;;21.18;57.22;100175.15;117202;1186;23646;-60
2022/09/26 06:31:28;;;;;;;228.30;217.60;;;;;;;21.34;57.22;100178.98;117226;1185;22841;-67
2022/09/26 06:34:00;;;;;;;;;;;;;;;21.53;57.20;100182.65;117030;1188;22946;-59
2022/09/26 06:36:27;;;;;;;186.80;177.30;;;;;;;21.71;57.32;100181.43;117263;1177;21959;-60
2022/09/26 06:38:54;;;;;;;209.60;197.90;;;;;;;21.84;56.26;100181.48;117162;1186;23596;-68
2022/09/26 06:41:22;;;;;;;182.90;173.50;;;;;;;21.91;55.97;100179.85;117290;1186;22832;-61
2022/09/26 06:43:50;;;;;;;186.30;176.70;;;;;;;21.92;56.10;100176.90;117088;1187;21848;-60
2022/09/26 06:46:17;;;;;;;208.20;197.80;;;;;;;21.99;56.07;100173.46;117215;1186;23552;-60
2022/09/26 06:48:45;;;;;;;201.90;192.30;;;;;;;22.12;55.65;100166.16;117124;1186;24157;-69
2022/09/26 06:51:13;;;;;;;201.00;191.30;;;;;;;22.22;55.23;100161.45;117165;1186;23646;-60
2022/09/26 06:53:41;;;;;;;207.90;197.50;;;;;;;22.23;55.16;100166.17;117159;1186;23620;-69
2022/09/26 06:56:08;;;;;;;196.90;187.50;;;;;;;22.24;55.07;100174.36;117205;1186;22976;-60
2022/09/26 06:58:36;;;;;;;210.40;200.30;;;;;;;22.22;54.94;100180.71;117138;1186;24243;-61
2022/09/26 07:01:05;;;;;;;195.20;185.60;;;;;;;22.20;54.93;100175.86;117109;1187;23563;-68
2022/09/26 07:03:32;;;;;;;194.20;184.40;;;;;;;22.25;55.10;100169.83;118338;1187;21888;-69
2022/09/26 07:05:59;;;;;;;194.20;184.90;;;;;;;22.38;54.78;100160.39;117190;1186;21871;-60
2022/09/26 07:08:26;;;;;;;185.80;176.20;;;;;;;22.51;54.41;100156.58;116987;1189;23618;-68
2022/09/26 07:11:15;;;;;;;181.20;172.60;;;;;;;22.65;54.14;100153.84;117192;1186;21854;-61
2022/09/26 07:14:03;;;;;;;199.60;190.20;;;;;;;22.83;53.87;100153.34;119415;1185;21914;-68
2022/09/26 07:16:31;;;;;;;171.10;162.90;;;;;;;23.10;53.63;100149.08;118970;1186;24236;-68
2022/09/26 07:18:58;;;;;;;186.80;177.90;;;;;;;23.26;52.93;100148.16;117499;1185;22882;-69
2022/09/26 07:21:25;;;;;;;171.20;162.90;;;;;;;23.35;52.08;100147.05;117387;1185;22918;-68
2022/09/26 07:23:56;;;;;;;186.50;177.40;;;;;;;23.37;51.85;100148.48;117152;1186;23669;-69
2022/09/26 07:26:24;;;;;;;171.60;162.90;;;;;;;23.41;51.37;100146.80;117168;1187;22554;-69
2022/09/26 07:28:51;;;;;;;169.00;160.60;;;;;;;23.56;52.07;100148.27;117174;1186;22797;-61
2022/09/26 07:31:22;;;;;;;167.20;159.20;;;;;;;23.75;51.84;100159.65;117169;1185;23570;-69
2022/09/26 07:33:49;;;;;;;171.90;163.10;;;;;;;23.92;51.66;100165.40;117429;1186;21887;-62
2022/09/26 07:36:17;;;;;;;163.30;155.00;;;;;;;23.95;50.64;100166.25;117478;1186;22648;-69
2022/09/26 07:38:48;;;;;;;168.10;159.70;;;;;;;24.02;50.81;100161.30;117150;1186;22812;-69
2022/09/26 07:41:15;;;;;;;180.10;171.30;;;;;;;24.12;50.30;100156.51;117239;1186;23484;-69
2022/09/26 07:43:43;;;;;;;163.80;155.80;;;;;;;24.21;50.36;100146.67;117135;1186;22835;-69
2022/09/26 07:52:03;;;;;;;159.20;151.10;;;;;;;24.51;49.60;100131.60;117259;1186;22728;-69
2022/09/26 07:54:31;;;;;;;161.10;153.20;;;;;;;24.63;49.43;100132.17;117320;1186;22816;-69
2022/09/26 07:56:58;;;;;;;166.10;157.70;;;;;;;24.76;49.03;100133.91;117094;1186;22921;-69
2022/09/26 07:59:26;;;;;;;151.90;143.70;;;;;;;24.76;47.50;100134.00;117212;1186;23544;-68
2022/09/26 08:01:53;;;;;;;164.20;155.30;;;;;;;24.81;48.09;100131.16;117243;1187;23544;-69
2022/09/26 08:04:20;;;;;;;174.40;166.10;;;;;;;24.79;47.76;100132.16;117143;1187;23554;-68
2022/09/26 08:06:48;;;;;;;168.70;157.30;;;;;;;24.87;47.92;100129.79;117016;1187;22807;-69
2022/09/26 08:09:17;;;;;;;154.10;146.50;;;;;;;24.99;47.64;100125.49;117312;1185;21845;-62
2022/09/26 08:11:44;;;;;;;184.50;175.00;;;;;;;25.14;47.79;100126.30;117292;1189;23628;-68
2022/09/26 08:14:12;;;;;;;158.70;150.00;;;;;;;25.23;46.82;100126.87;117375;1186;23554;-62
2022/09/26 08:16:40;;;;;;;162.10;154.00;;;;;;;25.25;46.03;100126.57;117385;1182;23597;-62
2022/09/26 08:19:07;;;;;;;152.80;144.40;;;;;;;25.30;46.31;100124.15;117261;1182;23657;-67
2022/09/26 08:21:34;;;;;;;158.30;150.10;;;;;;;25.38;46.71;100119.08;117306;1185;21864;-68
2022/09/26 08:24:02;;;;;;;162.00;153.70;;;;;;;25.46;46.14;100114.52;117264;1185;22728;-62
2022/09/26 08:26:30;;;;;;;155.50;147.90;;;;;;;25.48;45.82;100118.47;117122;1186;23564;-68
2022/09/26 08:28:58;;;;;;;156.50;148.50;;;;;;;25.51;45.73;100116.81;119177;1186;21804;-68
2022/09/26 08:31:25;;;;;;;166.10;158.10;;;;;;;25.55;45.65;100110.40;117293;1186;21878;-62
2022/09/26 08:33:52;;;;;;;172.30;163.50;;;;;;;25.58;45.30;100101.02;117178;1186;24142;-68
2022/09/26 08:36:19;;;;;;;184.30;175.20;;;;;;;25.60;45.01;100102.09;117170;1186;22970;-68
2022/09/26 08:38:49;;;;;;;165.40;156.60;;;;;;;25.63;44.43;100104.55;117342;1186;24176;-68
2022/09/26 08:41:31;;;;;;;166.70;158.30;;;;;;;25.68;44.43;100098.94;117170;1186;23610;-61
2022/09/26 08:44:09;;;;;;;167.10;158.60;;;;;;;25.78;45.15;100092.41;117157;1188;23614;-68
2022/09/26 08:47:05;;;;;;;151.70;144.20;;;;;;;25.99;45.53;100095.37;117108;1186;21891;-69
2022/09/26 08:50:08;;;;;;;165.20;156.80;;;;;;;26.18;45.51;100091.48;117749;1186;24176;-69
2022/09/26 08:52:46;;;;;;;150.50;143.30;;;;;;;26.37;44.38;100088.18;119075;1186;21806;-63
2022/09/26 08:55:19;;;;;;;149.80;142.60;;;;;;;26.55;43.94;100087.40;117627;1187;21911;-68
2022/09/26 08:57:47;;;;;;;152.70;145.00;;;;;;;26.55;41.22;100089.72;117252;1186;23554;-63
2022/09/26 09:00:20;;;;;;;160.80;152.90;;;;;;;26.55;43.38;100081.60;117063;1188;22924;-62
2022/09/26 09:02:51;;;;;;;152.50;144.90;;;;;;;26.60;43.17;100077.21;117247;1187;22635;-62
2022/09/26 09:05:25;;;;;;;154.70;147.30;;;;;;;26.68;42.05;100075.14;117305;1186;23541;-62
2022/09/26 09:07:54;;;;;;;149.40;142.30;;;;;;;26.72;41.81;100070.67;117340;1186;21913;-62
2022/09/26 09:10:37;;;;;;;156.20;148.50;;;;;;;26.69;41.63;100061.59;117216;1186;21954;-62
2022/09/26 09:13:33;;;;;;;154.00;146.60;;;;;;;26.78;41.51;100062.27;117107;1186;24161;-68
2022/09/26 09:16:38;;;;;;;150.70;143.40;;;;;;;26.88;40.56;100064.52;117200;1186;23663;-67
2022/09/26 09:19:32;;;;;;;146.90;139.80;;;;;;;26.99;41.02;100063.94;117167;1189;23013;-67
2022/09/26 09:22:05;;;;;;;136.90;130.00;;;;;;;27.13;41.24;100065.70;117331;1185;23474;-65
2022/09/26 09:24:33;;;;;;;155.80;148.40;;;;;;;27.27;41.24;100067.45;117121;1189;24151;-67
2022/09/26 09:27:27;;;;;;;164.50;156.60;;;;;;;27.45;41.14;100064.23;117158;1186;23456;-61
2022/09/26 09:30:43;;;;;;;150.80;143.70;;;;;;;27.60;40.72;100066.48;117228;1186;24169;-67
2022/09/26 09:33:16;;;;;;;153.50;146.30;;;;;;;27.75;40.24;100067.54;117119;1189;23655;-62
2022/09/26 09:36:09;;;;;;;160.20;152.50;;;;;;;27.85;38.56;100068.81;117229;1186;23557;-62
2022/09/26 09:38:38;;;;;;;166.50;158.40;;;;;;;27.93;39.15;100067.92;117073;1189;23559;-62
2022/09/26 09:41:12;;;;;;;158.80;150.90;;;;;;;28.01;37.17;100072.46;117127;1189;22836;-62
2022/09/26 09:43:47;;;;;;;145.70;138.80;;;;;;;28.11;37.17;100073.17;117249;1186;21858;-66
2022/09/26 09:46:39;;;;;;;139.00;132.30;;;;;;;28.13;34.46;100071.02;117169;1189;23478;-61
2022/09/26 09:49:06;;;;;;;165.10;157.10;;;;;;;28.11;35.56;100067.36;117189;1186;23558;-67
2022/09/26 09:51:58;;;;;;;164.80;157.00;;;;;;;28.17;36.49;100065.45;117169;1184;22809;-62
2022/09/26 09:54:41;;;;;;;151.40;143.80;;;;;;;28.28;35.44;100069.09;117298;1186;23580;-66
2022/09/26 09:57:33;;;;;;;163.60;155.80;;;;;;;28.37;35.19;100053.52;117128;1186;21866;-66
2022/09/26 10:00:21;;;;;;;174.00;165.70;;;;;;;28.54;36.98;100049.58;117260;1186;21845;-67
2022/09/26 10:03:01;;;;;;;176.30;167.80;;;;;;;28.70;36.82;100044.67;117097;1186;23643;-62
2022/09/26 10:05:44;;;;;;;;;;;;;;;28.75;36.38;100041.33;117121;1186;23423;-61
2022/09/26 10:08:21;;;;;;;155.70;148.20;;;;;;;28.81;36.00;100043.70;117719;1182;23004;-64
2022/09/26 10:11:25;;;;;;;163.40;155.70;;;;;;;28.77;36.53;100036.85;117139;1189;21909;-62
2022/09/26 10:13:54;;;;;;;176.90;168.30;;;;;;;28.72;35.54;100025.91;117147;1186;23579;-68
2022/09/26 10:16:22;;;;;;;175.10;166.50;;;;;;;28.74;34.44;100020.86;117243;1188;24222;-67
2022/09/26 10:19:02;;;;;;;192.10;183.10;;;;;;;28.82;35.36;100009.27;117388;1185;23612;-65
2022/09/26 10:21:33;;;;;;;166.20;158.10;;;;;;;28.85;35.42;100011.20;117333;1185;23555;-67
2022/09/26 10:24:03;;;;;;;176.10;167.50;;;;;;;28.79;34.99;100006.08;117238;1186;23582;-63
2022/09/26 10:26:38;;;;;;;170.40;162.40;;;;;;;28.77;35.21;99996.39;117158;1186;23612;-67
2022/09/26 10:29:20;;;;;;;173.80;165.20;;;;;;;28.83;35.51;99985.36;117198;1188;23580;-62
2022/09/26 10:31:47;;;;;;;178.30;169.80;;;;;;;29.00;35.19;99979.20;117241;1182;23649;-66
2022/09/26 10:34:23;;;;;;;186.50;177.30;;;;;;;28.95;34.43;99980.04;117062;1188;21940;-62
2022/09/26 10:36:51;;;;;;;172.00;164.00;;;;;;;28.65;33.33;99974.23;117177;1186;23560;-66
2022/09/26 10:42:14;;;;;;;211.80;201.90;;;;;;;28.02;35.46;99977.67;117332;1185;23586;-67
2022/09/26 10:44:42;;;;;;;188.70;179.60;;;;;;;27.78;35.43;99982.79;117582;1184;22327;-62
2022/09/26 10:47:13;;;;;;;211.50;199.50;;;;;;;27.58;34.75;99978.73;117313;1186;23540;-63
2022/09/26 10:50:20;;;;;;;180.20;171.70;;;;;;;27.48;33.55;99981.13;117150;1189;23631;-62
2022/09/26 10:53:16;;;;;;;181.80;173.20;;;;;;;27.60;33.76;99980.63;117034;1188;21861;-67
2022/09/26 10:55:48;;;;;;;150.50;143.30;;;;;;;27.82;34.38;99978.38;117146;1186;22087;-67
2022/09/26 10:58:22;;;;;;;164.30;156.40;;;;;;;28.00;33.94;99983.23;117186;1186;21865;-62
2022/09/26 11:00:50;;;;;;;191.20;180.20;;;;;;;28.09;34.03;99981.74;117247;1186;22809;-66
2022/09/26 11:03:42;;;;;;;181.10;172.10;;;;;;;28.19;34.73;99970.36;117214;1186;23554;-62
2022/09/26 11:06:26;;;;;;;167.80;159.30;;;;;;;28.25;34.89;99972.33;117214;1188;23649;-66
2022/09/26 11:08:57;;;;;;;163.50;155.80;;;;;;;28.33;34.71;99963.11;117238;1185;23560;-62
2022/09/26 11:11:26;;;;;;;174.80;166.70;;;;;;;28.46;34.41;99952.89;117230;1186;21848;-62
2022/09/26 11:14:02;;;;;;;172.20;164.10;;;;;;;28.55;33.87;99945.21;117193;1186;21857;-62
2022/09/26 11:16:48;;;;;;;195.10;186.00;;;;;;;28.58;32.83;99946.92;117305;1185;23601;-67
2022/09/26 11:19:38;;;;;;;163.30;155.40;;;;;;;28.58;32.78;99943.61;117295;1186;23600;-62
2022/09/26 11:22:40;;;;;;;149.30;141.90;;;;;;;28.47;30.94;99943.41;117279;1186;24259;-66
2022/09/26 11:25:25;;;;;;;156.40;148.80;;;;;;;28.24;32.38;99949.73;117065;1186;23560;-66
2022/09/26 11:28:21;;;;;;;159.40;151.90;;;;;;;28.16;32.75;99944.08;117228;1186;21911;-62
2022/09/26 11:30:47;;;;;;;168.10;159.90;;;;;;;28.26;32.77;99945.70;117078;1184;21929;-68